createdAt,value
2022-08-11T00:02:28.348Z,42.87
2022-08-11T00:05:02.057Z,43.05
2022-08-11T00:07:30.603Z,42.93
2022-08-11T00:09:59.068Z,42.75
2022-08-11T00:12:27.609Z,42.91
2022-08-11T00:15:01.676Z,43.07
2022-08-11T00:17:31.547Z,43.06
2022-08-11T00:20:11.995Z,43.05
2022-08-11T00:22:46.674Z,43.06
2022-08-11T00:25:16.744Z,43.39
2022-08-11T00:27:46.517Z,43.31
2022-08-11T00:30:16.080Z,43.55
2022-08-11T00:32:46.112Z,43.63
2022-08-11T00:35:55.336Z,43.83
2022-08-11T00:38:06.929Z,43.95
2022-08-11T00:40:41.550Z,44.04
2022-08-11T00:43:21.110Z,44.28
2022-08-11T00:46:11.021Z,44.34
2022-08-11T00:48:49.002Z,44.53
2022-08-11T00:51:57.707Z,44.78
2022-08-11T00:54:53.149Z,44.92
2022-08-11T00:57:44.115Z,45.16
2022-08-11T01:00:14.453Z,45.39
2022-08-11T01:03:18.502Z,45.53
2022-08-11T01:06:03.731Z,45.49
2022-08-11T01:09:00.687Z,45.79
2022-08-11T01:11:55.402Z,45.80
2022-08-11T01:15:14.663Z,45.86
2022-08-11T01:18:18.907Z,45.84
2022-08-11T01:21:16.529Z,45.90
2022-08-11T01:24:24.816Z,46.08
2022-08-11T01:27:29.809Z,46.24
2022-08-11T01:30:34.069Z,46.21
2022-08-11T01:33:47.081Z,46.30
2022-08-11T01:36:56.557Z,46.35
2022-08-11T01:39:41.460Z,46.48
2022-08-11T01:43:10.795Z,46.61
2022-08-11T01:45:47.472Z,46.55
2022-08-11T01:48:27.538Z,46.70
2022-08-11T01:51:08.294Z,46.91
2022-08-11T01:53:51.450Z,46.99
2022-08-11T01:56:34.391Z,47.21
2022-08-11T01:59:13.643Z,47.35
2022-08-11T02:02:05.535Z,47.56
2022-08-11T02:04:38.075Z,47.68
2022-08-11T02:07:16.914Z,47.97
2022-08-11T02:09:57.199Z,48.17
2022-08-11T02:12:52.146Z,48.31
2022-08-11T02:15:33.742Z,48.46
2022-08-11T02:18:05.538Z,48.65
2022-08-11T02:21:03.671Z,48.78
2022-08-11T02:24:05.955Z,48.98
2022-08-11T02:26:39.805Z,48.98
2022-08-11T02:29:18.576Z,49.17
2022-08-11T02:32:28.393Z,49.26
2022-08-11T02:35:18.611Z,49.35
2022-08-11T02:38:00.220Z,49.59
2022-08-11T02:40:38.330Z,49.60
2022-08-11T02:43:16.589Z,49.70
2022-08-11T02:45:54.362Z,49.84
2022-08-11T02:48:54.554Z,49.91
2022-08-11T02:51:32.916Z,49.87
2022-08-11T02:54:11.542Z,50.01
2022-08-11T02:56:49.598Z,49.97
2022-08-11T02:59:46.638Z,49.93
2022-08-11T03:02:22.725Z,49.80
2022-08-11T03:05:02.124Z,49.79
2022-08-11T03:07:38.382Z,49.82
2022-08-11T03:10:23.225Z,49.64
2022-08-11T03:13:16.542Z,49.73
2022-08-11T03:16:10.107Z,49.73
2022-08-11T03:18:48.531Z,49.71
2022-08-11T03:21:20.896Z,49.75
2022-08-11T03:24:01.654Z,49.80
2022-08-11T03:26:39.637Z,49.76
2022-08-11T03:29:18.360Z,49.84
2022-08-11T03:32:01.403Z,49.92
2022-08-11T03:34:37.378Z,50.05
2022-08-11T03:37:43.236Z,50.27
2022-08-11T03:40:42.897Z,50.09
2022-08-11T03:43:24.204Z,50.13
2022-08-11T03:46:02.038Z,50.22
2022-08-11T03:48:40.951Z,50.37
2022-08-11T03:51:18.879Z,50.47
2022-08-11T03:54:02.032Z,50.56
2022-08-11T03:57:03.009Z,50.67
2022-08-11T04:00:08.400Z,50.87
2022-08-11T04:03:16.853Z,51.02
2022-08-11T04:06:18.837Z,51.27
2022-08-11T04:09:06.947Z,51.41
2022-08-11T04:12:35.498Z,51.59
2022-08-11T04:16:12.380Z,51.65
2022-08-11T04:19:03.791Z,51.55
2022-08-11T04:22:02.489Z,51.76
2022-08-11T04:25:06.109Z,51.63
2022-08-11T04:27:53.838Z,51.84
2022-08-11T04:30:34.257Z,51.84
2022-08-11T04:33:35.910Z,51.94
2022-08-11T04:36:41.998Z,52.10
2022-08-11T04:39:24.384Z,52.08
2022-08-11T04:42:39.183Z,52.08
2022-08-11T04:45:34.997Z,52.06
2022-08-11T04:48:55.521Z,52.05
2022-08-11T04:51:59.589Z,52.00
2022-08-11T04:55:00.626Z,51.89
2022-08-11T04:58:09.690Z,51.89
2022-08-11T05:01:13.695Z,51.84
2022-08-11T05:04:04.587Z,51.88
2022-08-11T05:07:11.284Z,52.13
2022-08-11T05:09:54.162Z,52.29
2022-08-11T05:12:41.043Z,52.35
2022-08-11T05:15:42.689Z,52.45
2022-08-11T05:18:34.624Z,52.38
2022-08-11T05:21:26.789Z,52.62
2022-08-11T05:24:16.468Z,52.95
2022-08-11T05:27:11.288Z,53.15
2022-08-11T05:30:02.722Z,53.08
2022-08-11T05:33:00.969Z,53.18
2022-08-11T05:36:00.473Z,53.53
2022-08-11T05:38:48.213Z,53.86
2022-08-11T05:41:39.889Z,53.79
2022-08-11T05:44:28.772Z,53.41
2022-08-11T05:47:15.750Z,53.75
2022-08-11T05:50:13.588Z,53.49
2022-08-11T05:53:04.867Z,53.17
2022-08-11T05:56:02.120Z,52.83
2022-08-11T05:58:41.328Z,51.46
2022-08-11T06:01:10.537Z,51.29
2022-08-11T06:03:58.375Z,50.90
2022-08-11T06:06:30.367Z,49.88
2022-08-11T06:09:00.349Z,48.83
2022-08-11T06:11:44.424Z,48.47
2022-08-11T06:14:14.659Z,47.84
2022-08-11T06:16:47.434Z,47.83
2022-08-11T06:19:16.013Z,47.79
2022-08-11T06:21:48.169Z,47.16
2022-08-11T06:24:16.308Z,47.07
2022-08-11T06:27:11.228Z,46.85
2022-08-11T06:29:47.938Z,46.35
2022-08-11T06:32:25.982Z,44.79
2022-08-11T06:35:12.112Z,44.64
2022-08-11T06:38:01.525Z,44.17
2022-08-11T06:40:38.355Z,44.21
2022-08-11T06:43:18.816Z,43.34
2022-08-11T06:45:55.804Z,42.68
2022-08-11T06:48:24.964Z,42.71
2022-08-11T06:51:12.480Z,41.87
2022-08-11T06:53:44.300Z,40.32
2022-08-11T06:57:06.660Z,40.49
2022-08-11T07:00:01.515Z,40.25
2022-08-11T07:02:33.805Z,40.04
2022-08-11T07:05:07.574Z,39.40
2022-08-11T07:08:35.023Z,37.90
2022-08-11T07:11:42.029Z,38.49
2022-08-11T07:14:40.135Z,37.97
2022-08-11T07:17:14.404Z,37.84
2022-08-11T07:20:05.385Z,37.16
2022-08-11T07:22:53.878Z,37.07
2022-08-11T07:25:43.410Z,36.74
2022-08-11T07:28:35.809Z,36.55
2022-08-11T07:31:13.358Z,36.08
2022-08-11T07:34:07.071Z,35.88
2022-08-11T07:36:38.690Z,35.31
2022-08-11T07:39:10.591Z,35.12
2022-08-11T07:41:38.810Z,35.37
2022-08-11T07:44:10.986Z,34.38
2022-08-11T07:47:00.896Z,34.54
2022-08-11T07:49:50.105Z,34.18
2022-08-11T07:52:29.850Z,33.37
2022-08-11T07:55:00.566Z,33.68
2022-08-11T07:58:13.615Z,33.87
2022-08-11T08:00:59.168Z,33.52
2022-08-11T08:03:54.388Z,33.48
2022-08-11T08:06:42.348Z,32.78
2022-08-11T08:09:30.246Z,33.16
2022-08-11T08:12:20.532Z,33.44
2022-08-11T08:15:07.257Z,32.81
2022-08-11T08:18:09.408Z,32.49
2022-08-11T08:20:42.577Z,32.66
2022-08-11T08:23:11.394Z,32.62
2022-08-11T08:25:42.026Z,32.54
2022-08-11T08:28:13.361Z,32.44
2022-08-11T08:30:48.845Z,32.62
2022-08-11T08:33:20.618Z,32.15
2022-08-11T08:35:54.397Z,32.17
2022-08-11T08:38:24.186Z,32.27
2022-08-11T08:40:55.893Z,32.29
2022-08-11T08:43:25.133Z,31.97
2022-08-11T08:45:55.836Z,31.58
2022-08-11T08:48:26.259Z,31.60
2022-08-11T08:51:15.808Z,30.75
2022-08-11T08:53:53.263Z,31.05
2022-08-11T08:56:28.053Z,31.05
2022-08-11T08:58:59.158Z,30.82
2022-08-11T09:01:30.872Z,30.47
2022-08-11T09:04:05.053Z,30.28
2022-08-11T09:06:39.181Z,29.96
2022-08-11T09:09:10.548Z,30.23
2022-08-11T09:11:55.648Z,30.50
2022-08-11T09:14:47.352Z,30.24
2022-08-11T09:17:17.336Z,29.07
2022-08-11T09:19:52.215Z,28.72
2022-08-11T09:22:45.067Z,28.46
2022-08-11T09:25:32.925Z,28.59
2022-08-11T09:28:02.476Z,28.26
2022-08-11T09:30:30.828Z,27.85
2022-08-11T09:33:04.104Z,28.05
2022-08-11T09:35:36.041Z,27.22
2022-08-11T09:38:24.562Z,27.01
2022-08-11T09:40:57.035Z,26.66
2022-08-11T09:43:44.305Z,26.33
2022-08-11T09:46:14.089Z,25.53
2022-08-11T09:48:44.810Z,25.60
2022-08-11T09:51:13.334Z,25.79
2022-08-11T09:53:47.089Z,24.73
2022-08-11T09:56:49.744Z,24.71
2022-08-11T09:59:20.345Z,24.11
2022-08-11T10:01:51.917Z,24.25
2022-08-11T10:04:30.535Z,24.27
2022-08-11T10:07:04.183Z,23.93
2022-08-11T10:09:38.659Z,23.61
2022-08-11T10:12:09.645Z,23.82
2022-08-11T10:15:01.641Z,23.55
2022-08-11T10:17:32.663Z,23.35
2022-08-11T10:20:05.006Z,23.31
2022-08-11T10:22:53.483Z,22.42
2022-08-11T10:25:52.346Z,22.26
2022-08-11T10:28:33.855Z,21.63
2022-08-11T10:31:30.513Z,21.02
2022-08-11T10:34:12.499Z,20.51
2022-08-11T10:36:46.398Z,20.08
2022-08-11T10:39:18.662Z,20.35
2022-08-11T10:42:12.148Z,19.50
2022-08-11T10:44:45.355Z,18.81
2022-08-11T10:47:33.880Z,19.05
2022-08-11T10:50:22.258Z,18.69
2022-08-11T10:53:09.135Z,18.50
2022-08-11T10:55:58.721Z,18.67
2022-08-11T10:58:47.818Z,18.18
2022-08-11T11:01:16.855Z,18.47
2022-08-11T11:03:46.703Z,18.07
2022-08-11T11:06:29.829Z,18.37
2022-08-11T11:09:05.140Z,17.67
2022-08-11T11:11:56.893Z,17.70
2022-08-11T11:14:49.217Z,17.12
2022-08-11T11:17:45.030Z,17.12
2022-08-11T11:20:36.128Z,17.35
2022-08-11T11:23:08.201Z,17.39
2022-08-11T11:26:05.734Z,17.46
2022-08-11T11:28:47.232Z,17.52
2022-08-11T11:31:30.966Z,17.75
2022-08-11T11:34:14.696Z,17.75
2022-08-11T11:36:47.820Z,17.51
2022-08-11T11:39:18.965Z,17.66
2022-08-11T11:41:48.537Z,17.30
2022-08-11T11:44:17.205Z,17.56
2022-08-11T11:46:46.495Z,17.83
2022-08-11T11:49:17.864Z,17.91
2022-08-11T11:51:50.217Z,18.06
2022-08-11T11:54:23.108Z,17.25
2022-08-11T11:56:52.612Z,17.67
2022-08-11T11:59:40.358Z,16.80
2022-08-11T12:02:12.287Z,17.04
2022-08-11T12:04:44.054Z,16.86
2022-08-11T12:07:30.866Z,16.93
2022-08-11T12:10:00.349Z,17.12
2022-08-11T12:13:00.420Z,17.01
2022-08-11T12:16:03.691Z,17.02
2022-08-11T12:18:18.865Z,17.16
2022-08-11T12:20:47.431Z,16.80
2022-08-11T12:23:34.437Z,16.29
2022-08-11T12:26:29.952Z,15.96
2022-08-11T12:29:01.556Z,15.98
2022-08-11T12:31:30.995Z,15.31
2022-08-11T12:34:03.780Z,15.33
2022-08-11T12:36:35.812Z,15.79
2022-08-11T12:39:11.372Z,15.42
2022-08-11T12:42:10.550Z,15.22
2022-08-11T12:44:57.074Z,14.86
2022-08-11T12:47:45.623Z,14.57
2022-08-11T12:50:53.779Z,14.66
2022-08-11T12:53:25.758Z,14.91
2022-08-11T12:56:13.541Z,14.73
2022-08-11T12:58:44.145Z,14.46
2022-08-11T13:01:33.747Z,14.59
2022-08-11T13:04:20.843Z,14.88
2022-08-11T13:06:50.582Z,14.78
2022-08-11T13:09:20.070Z,13.97
2022-08-11T13:12:06.412Z,14.02
2022-08-11T13:14:34.620Z,14.02
2022-08-11T13:17:40.208Z,14.01
2022-08-11T13:20:13.045Z,14.37
2022-08-11T13:22:44.994Z,13.95
2022-08-11T13:25:15.478Z,14.00
2022-08-11T13:27:45.738Z,14.14
2022-08-11T13:30:37.056Z,13.77
2022-08-11T13:33:07.492Z,13.76
2022-08-11T13:35:36.335Z,13.44
2022-08-11T13:38:27.190Z,13.33
2022-08-11T13:40:56.405Z,13.68
2022-08-11T13:43:25.524Z,13.63
2022-08-11T13:46:15.086Z,13.58
2022-08-11T13:48:43.528Z,13.34
2022-08-11T13:51:34.816Z,13.28
2022-08-11T13:54:06.280Z,13.51
2022-08-11T13:56:39.043Z,13.61
2022-08-11T13:59:08.205Z,13.96
2022-08-11T14:02:03.511Z,13.33
2022-08-11T14:04:33.331Z,12.98
2022-08-11T14:07:06.196Z,12.77
2022-08-11T14:09:37.780Z,13.24
2022-08-11T14:12:32.561Z,13.05
2022-08-11T14:15:08.432Z,13.07
2022-08-11T14:17:48.760Z,12.91
2022-08-11T14:20:38.483Z,12.99
2022-08-11T14:23:10.121Z,12.92
2022-08-11T14:26:00.345Z,12.86
2022-08-11T14:28:37.486Z,12.76
2022-08-11T14:31:08.664Z,13.15
2022-08-11T14:34:00.512Z,13.25
2022-08-11T14:36:28.593Z,12.93
2022-08-11T14:38:56.881Z,12.47
2022-08-11T14:42:10.177Z,12.84
2022-08-11T14:44:53.194Z,13.11
2022-08-11T14:47:24.483Z,12.93
2022-08-11T14:50:09.647Z,13.13
2022-08-11T14:52:44.560Z,13.34
2022-08-11T14:55:31.449Z,13.32
2022-08-11T14:58:02.050Z,12.99
2022-08-11T15:00:30.787Z,13.54
2022-08-11T15:03:12.629Z,13.37
2022-08-11T15:05:53.718Z,13.95
2022-08-11T15:08:47.361Z,13.36
2022-08-11T15:11:35.552Z,12.64
2022-08-11T15:14:06.560Z,13.21
2022-08-11T15:16:54.141Z,12.24
2022-08-11T15:19:40.582Z,12.65
2022-08-11T15:22:28.964Z,13.04
2022-08-11T15:24:59.229Z,12.71
2022-08-11T15:27:47.722Z,12.68
2022-08-11T15:30:35.511Z,12.63
2022-08-11T15:33:30.415Z,12.72
2022-08-11T15:36:19.520Z,12.72
2022-08-11T15:38:54.887Z,13.25
2022-08-11T15:41:54.581Z,13.62
2022-08-11T15:45:05.321Z,13.27
2022-08-11T15:47:38.559Z,13.30
2022-08-11T15:50:14.651Z,13.17
2022-08-11T15:52:59.110Z,13.09
2022-08-11T15:55:31.209Z,13.48
2022-08-11T15:58:21.514Z,13.70
2022-08-11T16:01:11.421Z,13.94
2022-08-11T16:04:07.817Z,14.19
2022-08-11T16:06:41.878Z,14.76
2022-08-11T16:09:19.302Z,14.72
2022-08-11T16:11:48.819Z,14.82
2022-08-11T16:14:37.789Z,15.38
2022-08-11T16:17:09.457Z,16.07
2022-08-11T16:19:39.635Z,15.95
2022-08-11T16:22:11.607Z,16.23
2022-08-11T16:27:01.682Z,16.78
2022-08-11T16:27:36.070Z,16.50
2022-08-11T16:30:06.425Z,15.95
2022-08-11T16:32:35.178Z,16.58
2022-08-11T16:35:25.381Z,17.08
2022-08-11T16:38:13.353Z,17.09
2022-08-11T16:40:42.841Z,17.08
2022-08-11T16:43:33.990Z,17.50
2022-08-11T16:46:22.361Z,17.78
2022-08-11T16:48:52.818Z,17.73
2022-08-11T16:51:22.336Z,17.77
2022-08-11T16:54:05.040Z,17.89
2022-08-11T16:56:41.168Z,18.26
2022-08-11T16:59:14.301Z,18.17
2022-08-11T17:01:45.892Z,18.26
2022-08-11T17:04:38.564Z,18.36
2022-08-11T17:07:41.704Z,18.49
2022-08-11T17:10:50.877Z,18.66
2022-08-11T17:13:27.810Z,18.55
2022-08-11T17:16:11.011Z,18.51
2022-08-11T17:18:48.614Z,18.68
2022-08-11T17:21:21.386Z,18.86
2022-08-11T17:23:54.169Z,18.93
2022-08-11T17:26:26.661Z,18.71
2022-08-11T17:28:59.770Z,19.07
2022-08-11T17:31:47.665Z,19.09
2022-08-11T17:34:34.218Z,19.62
2022-08-11T17:37:03.754Z,19.81
2022-08-11T17:39:32.705Z,19.31
2022-08-11T17:42:20.555Z,19.41
2022-08-11T17:45:07.957Z,19.85
2022-08-11T17:47:55.034Z,19.64
2022-08-11T17:50:23.471Z,19.96
2022-08-11T17:53:11.233Z,19.75
2022-08-11T17:55:58.684Z,19.82
2022-08-11T17:58:45.578Z,19.77
2022-08-11T18:01:14.808Z,20.18
2022-08-11T18:03:57.577Z,20.29
2022-08-11T18:06:34.253Z,20.47
2022-08-11T18:09:27.110Z,20.79
2022-08-11T18:12:14.626Z,20.86
2022-08-11T18:15:04.183Z,21.09
2022-08-11T18:17:52.255Z,20.92
2022-08-11T18:20:39.153Z,21.09
2022-08-11T18:23:45.647Z,21.37
2022-08-11T18:26:37.841Z,21.52
2022-08-11T18:29:27.286Z,21.69
2022-08-11T18:32:21.267Z,21.85
2022-08-11T18:35:13.200Z,22.07
2022-08-11T18:38:05.429Z,22.40
2022-08-11T18:40:54.214Z,22.94
2022-08-11T18:43:44.309Z,23.13
2022-08-11T18:46:34.271Z,23.86
2022-08-11T18:50:00.973Z,24.40
2022-08-11T18:52:36.100Z,24.54
2022-08-11T18:55:27.859Z,25.39
2022-08-11T18:58:15.986Z,25.90
2022-08-11T19:01:05.390Z,26.54
2022-08-11T19:03:53.579Z,27.21
2022-08-11T19:06:42.260Z,27.65
2022-08-11T19:09:32.987Z,27.99
2022-08-11T19:12:20.920Z,27.85
2022-08-11T19:15:10.586Z,28.30
2022-08-11T19:18:01.600Z,28.67
2022-08-11T19:20:50.771Z,28.95
2022-08-11T19:23:45.794Z,29.27
2022-08-11T19:26:33.465Z,29.37
2022-08-11T19:30:07.316Z,29.69
2022-08-11T19:32:30.029Z,30.01
2022-08-11T19:35:18.084Z,30.31
2022-08-11T19:38:07.461Z,30.63
2022-08-11T19:40:55.677Z,30.95
2022-08-11T19:43:42.764Z,31.20
2022-08-11T19:46:29.378Z,31.49
2022-08-11T19:49:17.260Z,31.80
2022-08-11T19:52:05.060Z,31.98
2022-08-11T19:54:53.858Z,32.37
2022-08-11T19:57:42.031Z,32.60
2022-08-11T20:00:34.273Z,32.53
2022-08-11T20:03:22.900Z,32.83
2022-08-11T20:06:09.859Z,32.77
2022-08-11T20:09:00.188Z,33.17
2022-08-11T20:11:47.833Z,33.30
2022-08-11T20:14:36.638Z,33.74
2022-08-11T20:17:24.733Z,33.92
2022-08-11T20:20:11.040Z,34.08
2022-08-11T20:22:58.631Z,34.22
2022-08-11T20:25:46.082Z,34.51
2022-08-11T20:28:35.360Z,34.66
2022-08-11T20:31:23.520Z,34.76
2022-08-11T20:34:09.382Z,34.92
2022-08-11T20:36:57.246Z,35.35
2022-08-11T20:39:45.525Z,35.43
2022-08-11T20:42:32.914Z,35.56
2022-08-11T20:45:23.786Z,35.84
2022-08-11T20:48:14.837Z,35.78
2022-08-11T20:51:06.401Z,36.15
2022-08-11T20:53:56.629Z,36.19
2022-08-11T20:56:46.846Z,36.42
2022-08-11T20:59:49.309Z,36.44
2022-08-11T21:02:45.380Z,36.61
2022-08-11T21:06:08.723Z,36.85
2022-08-11T21:08:48.535Z,36.87
2022-08-11T21:11:36.473Z,37.24
2022-08-11T21:14:28.943Z,37.40
2022-08-11T21:17:18.908Z,37.62
2022-08-11T21:20:20.796Z,37.66
2022-08-11T21:23:14.936Z,37.62
2022-08-11T21:26:14.873Z,37.72
2022-08-11T21:29:01.611Z,37.84
2022-08-11T21:31:50.721Z,37.86
2022-08-11T21:34:40.293Z,37.97
2022-08-11T21:37:29.073Z,38.03
2022-08-11T21:40:18.459Z,38.39
2022-08-11T21:43:07.131Z,38.19
2022-08-11T21:45:55.940Z,38.22
2022-08-11T21:48:44.431Z,38.18
2022-08-11T21:51:30.711Z,37.95
2022-08-11T21:54:20.677Z,37.82
2022-08-11T21:57:08.293Z,37.85
2022-08-11T22:00:02.820Z,37.86
2022-08-11T22:02:57.463Z,38.05
2022-08-11T22:05:45.100Z,38.46
2022-08-11T22:08:32.374Z,38.32
2022-08-11T22:11:32.231Z,38.15
2022-08-11T22:14:19.566Z,38.18
2022-08-11T22:17:05.864Z,38.10
2022-08-11T22:19:54.456Z,38.00
2022-08-11T22:22:49.132Z,37.90
2022-08-11T22:25:51.526Z,37.61
2022-08-11T22:28:40.773Z,37.33
2022-08-11T22:31:28.228Z,37.56
2022-08-11T22:34:14.864Z,37.71
2022-08-11T22:37:03.314Z,37.82
2022-08-11T22:40:00.063Z,37.97
2022-08-11T22:42:50.289Z,38.36
2022-08-11T22:45:37.320Z,38.75
2022-08-11T22:48:25.657Z,38.76
2022-08-11T22:51:13.191Z,38.99
2022-08-11T22:54:01.517Z,39.21
2022-08-11T22:56:49.363Z,39.37
2022-08-11T22:59:37.516Z,39.53
2022-08-11T23:02:25.160Z,39.66
2022-08-11T23:05:11.754Z,39.80
2022-08-11T23:07:59.137Z,39.73
2022-08-11T23:10:46.453Z,39.91
2022-08-11T23:13:33.260Z,39.71
2022-08-11T23:16:20.445Z,39.70
2022-08-11T23:19:08.147Z,39.52
2022-08-11T23:21:55.546Z,39.29
2022-08-11T23:24:44.324Z,38.98
2022-08-11T23:27:32.947Z,38.89
2022-08-11T23:30:20.636Z,38.56
2022-08-11T23:33:12.922Z,38.54
2022-08-11T23:36:05.312Z,38.43
2022-08-11T23:38:52.917Z,38.43
2022-08-11T23:41:40.174Z,38.51
2022-08-11T23:44:27.512Z,38.54
2022-08-11T23:47:17.061Z,38.66
2022-08-11T23:50:04.313Z,38.61
2022-08-11T23:52:52.079Z,38.78
2022-08-11T23:55:39.394Z,38.83
2022-08-11T23:58:26.085Z,38.79
